Terminal Aerodrome Forecast
Issued by NWS

Home | Current Version | Previous Version | Text Only | Print | Product List | Glossary On
Versions: 1 2 3 4 5 6 7 8 9 10 11 12 13 14
000
FTUS44 KTSA 271700
TAFFYV
TAF
KFYV 271721Z 2718/2818 08018G26KT P6SM BKN090 OVC110
     FM280200 08006KT 5SM -RA BR BKN035
     FM280900 06006KT P6SM BKN030 PROB30 2809/2815 6SM -RA BKN025
     FM281700 04007KT P6SM BKN100=

USA.gov is the U.S. government's official web portal to all federal, state and local government web resources and services.